Terminal Aerodrome Forecast
Issued by NWS Jackson, MS

Home | Current Version | Previous Version | Text Only | Print | Product List | Glossary On
Versions: 1 2 3 4 5 6 7 8 9 10 11 12 13 14 15 16 17 18 19 20 21 22 23 24 25 26 27 28 29 30 31
000
FTUS44 KJAN 191120
TAFGLH
TAF
KGLH 191120Z 1912/2012 21006KT P6SM BKN250
     FM191600 22010G20KT P6SM SCT035 BKN250
     FM192100 22013G24KT P6SM VCTS SCT050CB BKN250
     FM200900 23010G21KT P6SM VCTS BKN050CB=

USA.gov is the U.S. government's official web portal to all federal, state and local government web resources and services.